createdAt,value
2018-02-19T00:01:19.500Z,-1.40
2018-02-19T00:03:47.004Z,-1.40
2018-02-19T00:06:14.528Z,-1.40
2018-02-19T00:08:42.720Z,-1.40
2018-02-19T00:11:10.168Z,-1.40
2018-02-19T00:13:37.685Z,-1.40
2018-02-19T00:16:05.248Z,-1.40
2018-02-19T00:18:32.799Z,-1.40
2018-02-19T00:21:00.247Z,-1.40
2018-02-19T00:23:27.700Z,-1.30
2018-02-19T00:25:55.152Z,-1.30
2018-02-19T00:28:22.647Z,-1.30
2018-02-19T00:30:50.096Z,-1.30
2018-02-19T00:33:17.537Z,-1.30
2018-02-19T00:35:45.048Z,-1.30
2018-02-19T00:38:12.460Z,-1.30
2018-02-19T00:40:39.952Z,-1.30
2018-02-19T00:43:07.388Z,-1.30
2018-02-19T00:45:34.868Z,-1.20
2018-02-19T00:48:02.308Z,-1.20
2018-02-19T00:50:29.751Z,-1.10
2018-02-19T00:52:57.259Z,-1.00
2018-02-19T00:55:24.723Z,-1.00
2018-02-19T00:57:52.156Z,-0.90
2018-02-19T01:00:19.606Z,-0.80
2018-02-19T01:02:47.044Z,-0.70
2018-02-19T01:05:15.265Z,-0.70
2018-02-19T01:07:42.703Z,-0.70
2018-02-19T01:10:10.157Z,-0.70
2018-02-19T01:12:38.395Z,-0.70
2018-02-19T01:15:05.831Z,-0.70
2018-02-19T01:17:33.293Z,-0.70
2018-02-19T01:20:00.824Z,-0.70
2018-02-19T01:22:29.042Z,-0.70
2018-02-19T01:24:56.507Z,-0.70
2018-02-19T01:27:24.019Z,-0.70
2018-02-19T01:29:52.313Z,-0.80
2018-02-19T01:32:19.819Z,-0.70
2018-02-19T01:34:47.272Z,-0.80
2018-02-19T01:37:14.736Z,-0.80
2018-02-19T01:39:42.220Z,-0.80
2018-02-19T01:42:09.705Z,-0.80
2018-02-19T01:44:37.908Z,-0.80
2018-02-19T01:47:05.392Z,-0.80
2018-02-19T01:49:32.948Z,-0.90
2018-02-19T01:52:00.388Z,-0.90
2018-02-19T01:54:27.828Z,-0.90
2018-02-19T01:56:56.045Z,-0.90
2018-02-19T01:59:23.564Z,-0.90
2018-02-19T02:01:51.012Z,-0.90
2018-02-19T02:04:18.543Z,-0.90
2018-02-19T02:06:46.008Z,-0.90
2018-02-19T02:09:14.128Z,-0.90
2018-02-19T02:11:41.648Z,-0.90
2018-02-19T02:14:09.083Z,-0.90
2018-02-19T02:16:36.535Z,-0.90
2018-02-19T02:19:04.028Z,-0.90
2018-02-19T02:21:31.483Z,-0.90
2018-02-19T02:23:58.919Z,-0.90
2018-02-19T02:26:26.480Z,-0.90
2018-02-19T02:28:53.922Z,-0.80
2018-02-19T02:31:22.132Z,-0.90
2018-02-19T02:33:49.622Z,-0.90
2018-02-19T02:36:17.093Z,-0.90
2018-02-19T02:38:44.654Z,-0.90
2018-02-19T02:41:12.103Z,-0.90
2018-02-19T02:43:39.564Z,-0.90
2018-02-19T02:46:07.176Z,-0.90
2018-02-19T02:48:35.393Z,-1.00
2018-02-19T02:51:02.819Z,-1.00
2018-02-19T02:53:31.048Z,-1.00
2018-02-19T02:55:58.489Z,-1.00
2018-02-19T02:58:25.940Z,-1.00
2018-02-19T03:00:53.376Z,-0.90
2018-02-19T03:03:21.607Z,-0.90
2018-02-19T03:05:49.079Z,-1.00
2018-02-19T03:08:16.556Z,-1.00
2018-02-19T03:10:43.996Z,-0.90
2018-02-19T03:13:11.496Z,-0.90
2018-02-19T03:15:39.020Z,-0.80
2018-02-19T03:18:06.498Z,-0.80
2018-02-19T03:20:33.936Z,-0.80
2018-02-19T03:23:01.392Z,-0.80
2018-02-19T03:25:28.848Z,-0.80
2018-02-19T03:27:56.336Z,-0.80
2018-02-19T03:30:23.784Z,-0.80
2018-02-19T03:32:51.236Z,-0.80
2018-02-19T03:35:18.719Z,-0.80
2018-02-19T03:37:46.171Z,-0.80
2018-02-19T03:40:13.610Z,-0.80
2018-02-19T03:42:41.132Z,-0.70
2018-02-19T03:45:09.394Z,-0.70
2018-02-19T03:47:36.832Z,-0.70
2018-02-19T03:50:04.279Z,-0.70
2018-02-19T03:52:31.744Z,-0.70
2018-02-19T03:54:59.183Z,-0.70
2018-02-19T03:57:26.636Z,-0.70
2018-02-19T03:59:54.840Z,-0.60
2018-02-19T04:02:22.352Z,-0.70
2018-02-19T04:04:49.784Z,-0.60
2018-02-19T04:07:17.240Z,-0.60
2018-02-19T04:09:44.708Z,-0.60
2018-02-19T04:12:12.168Z,-0.60
2018-02-19T04:14:39.620Z,-0.70
2018-02-19T04:17:07.119Z,-0.70
2018-02-19T04:19:34.560Z,-0.70
2018-02-19T04:22:02.000Z,-0.70
2018-02-19T04:24:29.524Z,-0.60
2018-02-19T04:26:57.731Z,-0.50
2018-02-19T04:29:25.188Z,-0.50
2018-02-19T04:31:52.678Z,-0.40
2018-02-19T04:34:20.141Z,-0.30
2018-02-19T04:36:47.601Z,-0.30
2018-02-19T04:39:15.169Z,-0.20
2018-02-19T04:41:42.735Z,-0.20
2018-02-19T04:44:11.103Z,-0.10
2018-02-19T04:46:39.424Z,0.00
2018-02-19T04:49:06.892Z,0.10
2018-02-19T04:51:35.144Z,0.20
2018-02-19T04:54:02.592Z,0.20
2018-02-19T04:56:30.052Z,0.20
2018-02-19T04:58:57.495Z,0.30
2018-02-19T05:01:24.995Z,0.30
2018-02-19T05:03:53.978Z,0.30
2018-02-19T05:06:21.407Z,0.30
2018-02-19T05:08:50.515Z,0.30
2018-02-19T05:11:17.936Z,0.20
2018-02-19T05:13:46.175Z,0.20
2018-02-19T05:16:13.760Z,0.20
2018-02-19T05:18:41.210Z,0.20
2018-02-19T05:21:08.656Z,0.20
2018-02-19T05:23:36.275Z,0.30
2018-02-19T05:26:04.578Z,0.40
2018-02-19T05:28:32.002Z,0.30
2018-02-19T05:31:00.204Z,0.40
2018-02-19T05:33:27.688Z,0.40
2018-02-19T05:35:55.192Z,0.30
2018-02-19T05:38:22.736Z,0.30
2018-02-19T05:40:50.188Z,0.30
2018-02-19T05:43:17.705Z,0.30
2018-02-19T05:45:45.900Z,0.30
2018-02-19T05:48:13.348Z,0.30
2018-02-19T05:50:41.568Z,0.30
2018-02-19T05:53:09.136Z,0.30
2018-02-19T05:55:36.572Z,0.30
2018-02-19T05:58:04.060Z,0.30
2018-02-19T06:00:31.493Z,0.30
2018-02-19T06:02:58.985Z,0.30
2018-02-19T06:05:26.431Z,0.30
2018-02-19T06:07:53.885Z,0.30
2018-02-19T06:10:21.332Z,0.30
2018-02-19T06:12:48.830Z,0.30
2018-02-19T06:15:16.304Z,0.40
2018-02-19T06:17:43.852Z,0.40
2018-02-19T06:20:11.398Z,0.50
2018-02-19T06:22:38.891Z,0.40
2018-02-19T06:25:06.440Z,0.40
2018-02-19T06:27:33.876Z,0.40
2018-02-19T06:30:01.323Z,0.40
2018-02-19T06:32:28.759Z,0.40
2018-02-19T06:34:56.203Z,0.40
2018-02-19T06:37:23.692Z,0.40
2018-02-19T06:39:51.930Z,0.30
2018-02-19T06:42:19.365Z,0.30
2018-02-19T06:44:46.849Z,0.30
2018-02-19T06:47:14.280Z,0.30
2018-02-19T06:49:41.771Z,0.30
2018-02-19T06:52:09.244Z,0.30
2018-02-19T06:54:36.691Z,0.30
2018-02-19T06:57:04.153Z,0.40
2018-02-19T06:59:31.623Z,0.50
2018-02-19T07:01:59.080Z,0.50
2018-02-19T07:04:26.535Z,0.50
2018-02-19T07:06:53.982Z,0.60
2018-02-19T07:09:21.428Z,0.60
2018-02-19T07:11:48.860Z,0.70
2018-02-19T07:14:17.073Z,0.80
2018-02-19T07:16:44.513Z,0.80
2018-02-19T07:19:12.977Z,0.90
2018-02-19T07:21:40.608Z,0.90
2018-02-19T07:24:08.056Z,0.90
2018-02-19T07:26:35.549Z,1.00
2018-02-19T07:29:02.984Z,1.00
2018-02-19T07:31:30.425Z,1.10
2018-02-19T07:33:57.864Z,1.20
2018-02-19T07:36:26.072Z,1.30
2018-02-19T07:38:53.507Z,1.20
2018-02-19T07:41:21.721Z,1.40
2018-02-19T07:43:49.147Z,1.40
2018-02-19T07:46:17.391Z,1.50
2018-02-19T07:48:44.918Z,1.50
2018-02-19T07:51:12.401Z,1.60
2018-02-19T07:53:39.836Z,1.60
2018-02-19T07:56:07.284Z,1.80
2018-02-19T07:58:34.720Z,1.90
2018-02-19T08:01:02.955Z,2.10
2018-02-19T08:03:30.395Z,2.10
2018-02-19T08:05:57.888Z,2.30
2018-02-19T08:08:25.347Z,2.50
2018-02-19T08:10:52.807Z,2.70
2018-02-19T08:13:20.248Z,2.90
2018-02-19T08:15:47.704Z,3.10
2018-02-19T08:18:15.145Z,3.30
2018-02-19T08:20:43.368Z,3.60
2018-02-19T08:23:10.817Z,3.60
2018-02-19T08:25:38.280Z,3.70
2018-02-19T08:28:05.752Z,3.70
2018-02-19T08:30:33.224Z,3.80
2018-02-19T08:33:00.664Z,3.70
2018-02-19T08:35:28.138Z,3.70
2018-02-19T08:37:55.600Z,3.70
2018-02-19T08:40:23.068Z,3.80
2018-02-19T08:42:50.506Z,3.90
2018-02-19T08:45:17.952Z,3.90
2018-02-19T08:47:45.392Z,3.90
2018-02-19T08:50:13.607Z,4.10
2018-02-19T08:52:41.059Z,4.10
2018-02-19T08:55:08.504Z,4.10
2018-02-19T08:57:35.939Z,4.10
2018-02-19T09:00:03.386Z,4.10
2018-02-19T09:02:30.820Z,4.10
2018-02-19T09:04:58.264Z,4.20
2018-02-19T09:07:25.748Z,4.40
2018-02-19T09:09:53.236Z,4.50
2018-02-19T09:12:20.676Z,4.90
2018-02-19T09:14:48.128Z,5.30
2018-02-19T09:17:15.604Z,5.60
2018-02-19T09:19:43.057Z,5.90
2018-02-19T09:22:10.500Z,6.10
2018-02-19T09:24:37.941Z,6.20
2018-02-19T09:27:05.383Z,6.20
2018-02-19T09:29:33.586Z,6.30
2018-02-19T09:32:01.075Z,6.30
2018-02-19T09:34:28.512Z,6.50
2018-02-19T09:36:56.016Z,6.60
2018-02-19T09:39:23.452Z,6.80
2018-02-19T09:41:50.893Z,6.60
2018-02-19T09:44:18.384Z,6.70
2018-02-19T09:46:45.844Z,6.80
2018-02-19T09:49:13.293Z,7.10
2018-02-19T09:51:40.736Z,7.50
2018-02-19T09:54:08.935Z,8.00
2018-02-19T09:56:36.482Z,8.00
2018-02-19T09:59:03.909Z,8.10
2018-02-19T10:01:32.225Z,8.40
2018-02-19T10:03:59.648Z,8.40
2018-02-19T10:06:27.187Z,9.10
2018-02-19T10:08:54.632Z,10.30
2018-02-19T10:11:22.082Z,10.90
2018-02-19T10:13:49.544Z,11.50
2018-02-19T10:16:17.096Z,11.90
2018-02-19T10:18:44.565Z,11.20
2018-02-19T10:21:12.049Z,10.20
2018-02-19T10:23:39.456Z,9.80
2018-02-19T10:26:07.664Z,9.90
2018-02-19T10:28:35.100Z,9.90
2018-02-19T10:31:03.324Z,10.00
2018-02-19T10:33:30.765Z,10.00
2018-02-19T10:35:58.259Z,10.00
2018-02-19T10:38:25.699Z,10.20
2018-02-19T10:40:53.155Z,10.20
2018-02-19T10:43:20.607Z,10.40
2018-02-19T10:45:48.101Z,10.50
2018-02-19T10:48:15.544Z,10.60
2018-02-19T10:50:42.992Z,10.40
2018-02-19T10:53:10.480Z,10.00
2018-02-19T10:55:37.933Z,10.10
2018-02-19T10:58:05.375Z,10.00
2018-02-19T11:00:38.528Z,10.80
2018-02-19T11:03:06.755Z,11.20
2018-02-19T11:05:34.230Z,11.20
2018-02-19T11:08:01.681Z,10.50
2018-02-19T11:10:29.176Z,10.20
2018-02-19T11:12:56.916Z,10.20
2018-02-19T11:15:24.376Z,9.70
2018-02-19T11:17:51.831Z,9.30
2018-02-19T11:20:19.327Z,9.90
2018-02-19T11:22:46.776Z,10.60
2018-02-19T11:25:14.228Z,11.10
2018-02-19T11:27:41.675Z,11.90
2018-02-19T11:30:09.187Z,12.90
2018-02-19T11:32:36.627Z,13.50
2018-02-19T11:35:04.067Z,13.50
2018-02-19T11:37:32.353Z,12.80
2018-02-19T11:39:59.804Z,12.20
2018-02-19T11:42:27.311Z,11.70
2018-02-19T11:44:56.248Z,11.10
2018-02-19T11:47:23.708Z,11.00
2018-02-19T11:49:51.160Z,11.10
2018-02-19T11:52:19.364Z,11.60
2018-02-19T11:54:46.840Z,11.60
2018-02-19T11:57:14.428Z,12.20
2018-02-19T11:59:41.860Z,12.70
2018-02-19T12:02:09.315Z,13.00
2018-02-19T12:04:36.767Z,12.80
2018-02-19T12:07:04.232Z,12.60
2018-02-19T12:09:31.684Z,12.40
2018-02-19T12:11:59.179Z,12.10
2018-02-19T12:14:26.639Z,11.80
2018-02-19T12:16:54.123Z,11.40
2018-02-19T12:19:21.544Z,11.20
2018-02-19T12:21:49.022Z,11.50
2018-02-19T12:24:16.651Z,12.30
2018-02-19T12:26:44.144Z,12.90
2018-02-19T12:29:11.601Z,13.40
2018-02-19T12:31:39.046Z,13.70
2018-02-19T12:34:06.520Z,13.80
2018-02-19T12:36:33.970Z,13.70
2018-02-19T12:39:01.480Z,14.00
2018-02-19T12:41:29.012Z,14.10
2018-02-19T12:43:56.556Z,14.20
2018-02-19T12:46:24.010Z,14.30
2018-02-19T12:48:51.456Z,14.10
2018-02-19T12:51:18.938Z,13.80
2018-02-19T12:53:46.380Z,13.70
2018-02-19T12:56:13.884Z,13.50
2018-02-19T12:58:41.349Z,13.50
2018-02-19T13:01:08.990Z,13.60
2018-02-19T13:03:36.475Z,13.70
2018-02-19T13:06:03.908Z,13.70
2018-02-19T13:08:31.396Z,13.60
2018-02-19T13:10:58.853Z,13.10
2018-02-19T13:13:26.328Z,12.60
2018-02-19T13:15:53.852Z,12.70
2018-02-19T13:18:21.355Z,12.90
2018-02-19T13:20:48.752Z,13.30
2018-02-19T13:23:16.975Z,13.80
2018-02-19T13:25:44.444Z,13.80
2018-02-19T13:28:11.972Z,14.80
2018-02-19T13:30:39.412Z,16.10
2018-02-19T13:33:07.627Z,15.90
2018-02-19T13:35:35.126Z,15.90
2018-02-19T13:38:02.691Z,16.00
2018-02-19T13:40:30.240Z,16.20
2018-02-19T13:42:57.755Z,16.40
2018-02-19T13:45:25.262Z,15.90
2018-02-19T13:47:52.715Z,14.60
2018-02-19T13:50:20.184Z,14.10
2018-02-19T13:52:47.639Z,13.50
2018-02-19T13:55:15.079Z,12.30
2018-02-19T13:57:42.580Z,11.70
2018-02-19T14:00:10.128Z,11.40
2018-02-19T14:02:37.612Z,11.20
2018-02-19T14:05:05.221Z,10.30
2018-02-19T14:07:32.659Z,9.50
2018-02-19T14:10:00.865Z,9.60
2018-02-19T14:12:28.332Z,9.60
2018-02-19T14:14:55.781Z,9.60
2018-02-19T14:17:23.216Z,9.80
2018-02-19T14:19:51.444Z,9.60
2018-02-19T14:22:18.920Z,9.50
2018-02-19T14:24:46.372Z,9.50
2018-02-19T14:27:13.848Z,9.50
2018-02-19T14:29:41.300Z,9.60
2018-02-19T14:32:08.752Z,9.70
2018-02-19T14:34:36.200Z,9.80
2018-02-19T14:37:03.700Z,9.70
2018-02-19T14:39:31.252Z,9.60
2018-02-19T14:41:58.702Z,9.50
2018-02-19T14:44:26.142Z,9.40
2018-02-19T14:46:53.644Z,9.30
2018-02-19T14:49:21.198Z,9.10
2018-02-19T14:51:48.667Z,9.00
2018-02-19T14:54:16.150Z,8.80
2018-02-19T14:56:43.584Z,8.60
2018-02-19T14:59:11.840Z,8.50
2018-02-19T15:01:40.267Z,8.40
2018-02-19T15:04:07.823Z,8.30
2018-02-19T15:06:35.263Z,8.20
2018-02-19T15:09:02.707Z,8.10
2018-02-19T15:11:30.144Z,7.90
2018-02-19T15:13:58.364Z,8.00
2018-02-19T15:16:25.795Z,7.90
2018-02-19T15:18:53.266Z,8.00
2018-02-19T15:21:21.476Z,8.00
2018-02-19T15:23:49.061Z,8.00
2018-02-19T15:26:16.521Z,8.00
2018-02-19T15:28:44.042Z,8.00
2018-02-19T15:31:11.546Z,7.90
2018-02-19T15:33:38.987Z,7.90
2018-02-19T15:36:06.420Z,7.80
2018-02-19T15:38:33.877Z,7.80
2018-02-19T15:41:01.316Z,7.80
2018-02-19T15:43:29.555Z,7.70
2018-02-19T15:45:57.005Z,7.70
2018-02-19T15:48:24.441Z,7.70
2018-02-19T15:50:51.884Z,7.70
2018-02-19T15:53:20.112Z,7.60
2018-02-19T15:55:47.676Z,7.50
2018-02-19T15:58:15.132Z,7.50
2018-02-19T16:00:42.596Z,7.50
2018-02-19T16:03:10.032Z,7.40
2018-02-19T16:05:37.480Z,7.30
2018-02-19T16:08:05.055Z,7.20
2018-02-19T16:10:32.563Z,7.20
2018-02-19T16:13:00.001Z,7.10
2018-02-19T16:15:27.471Z,7.00
2018-02-19T16:17:55.003Z,6.80
2018-02-19T16:20:22.515Z,6.70
2018-02-19T16:22:49.956Z,6.60
2018-02-19T16:25:17.420Z,6.50
2018-02-19T16:27:44.876Z,6.40
2018-02-19T16:30:12.391Z,6.30
2018-02-19T16:32:40.588Z,6.00
2018-02-19T16:35:08.084Z,6.00
2018-02-19T16:37:35.580Z,5.90
2018-02-19T16:40:03.828Z,5.70
2018-02-19T16:42:31.282Z,5.60
2018-02-19T16:44:58.735Z,5.60
2018-02-19T16:47:26.174Z,5.50
2018-02-19T16:49:53.668Z,5.40
2018-02-19T16:52:21.110Z,5.30
2018-02-19T16:54:48.612Z,5.20
2018-02-19T16:57:16.093Z,5.10
2018-02-19T16:59:43.542Z,5.10
2018-02-19T17:02:10.984Z,4.90
2018-02-19T17:04:38.463Z,4.90
2018-02-19T17:07:05.919Z,4.80
2018-02-19T17:09:33.452Z,4.70
2018-02-19T17:12:00.980Z,4.60
2018-02-19T17:14:29.214Z,4.50
2018-02-19T17:16:56.648Z,4.50
2018-02-19T17:19:24.180Z,4.50
2018-02-19T17:21:52.372Z,4.30
2018-02-19T17:24:19.893Z,4.30
2018-02-19T17:26:47.337Z,4.20
2018-02-19T17:29:15.477Z,4.10
2018-02-19T17:31:42.959Z,4.20
2018-02-19T17:34:10.352Z,4.20
2018-02-19T17:36:37.800Z,4.20
2018-02-19T17:39:05.244Z,4.10
2018-02-19T17:41:32.716Z,4.10
2018-02-19T17:44:00.265Z,4.00
2018-02-19T17:46:27.687Z,4.00
2018-02-19T17:48:55.927Z,3.90
2018-02-19T17:51:23.405Z,3.90
2018-02-19T17:53:50.868Z,3.90
2018-02-19T17:56:18.524Z,3.90
2018-02-19T17:58:46.069Z,3.80
2018-02-19T18:01:13.519Z,3.80
2018-02-19T18:03:40.969Z,3.80
2018-02-19T18:06:08.429Z,3.80
2018-02-19T18:08:35.864Z,3.80
2018-02-19T18:11:04.082Z,3.70
2018-02-19T18:13:31.556Z,3.70
2018-02-19T18:15:59.042Z,3.70
2018-02-19T18:18:26.485Z,3.70
2018-02-19T18:20:53.933Z,3.70
2018-02-19T18:23:21.503Z,3.70
2018-02-19T18:25:48.936Z,3.70
2018-02-19T18:28:16.412Z,3.70
2018-02-19T18:30:43.988Z,3.70
2018-02-19T18:33:11.564Z,3.70
2018-02-19T18:35:39.037Z,3.70
2018-02-19T18:38:06.477Z,3.70
2018-02-19T18:40:33.928Z,3.60
2018-02-19T18:43:01.404Z,3.60
2018-02-19T18:45:28.945Z,3.60
2018-02-19T18:47:56.448Z,3.50
2018-02-19T18:50:25.596Z,3.50
2018-02-19T18:52:53.022Z,3.50
2018-02-19T18:55:21.259Z,3.50
2018-02-19T18:57:48.749Z,3.50
2018-02-19T19:00:16.992Z,3.50
2018-02-19T19:02:44.441Z,3.50
2018-02-19T19:05:12.002Z,3.50
2018-02-19T19:07:51.462Z,3.40
2018-02-19T19:10:30.620Z,3.40
2018-02-19T19:12:58.151Z,3.40
2018-02-19T19:15:25.636Z,3.40
2018-02-19T19:17:53.111Z,3.40
2018-02-19T19:20:20.538Z,3.30
2018-02-19T19:22:48.016Z,3.30
2018-02-19T19:25:16.112Z,3.30
2018-02-19T19:27:44.352Z,3.30
2018-02-19T19:30:11.996Z,3.30
2018-02-19T19:32:39.488Z,3.30
2018-02-19T19:35:07.022Z,3.30
2018-02-19T19:37:34.544Z,3.30
2018-02-19T19:40:01.980Z,3.30
2018-02-19T19:42:29.540Z,3.30
2018-02-19T19:44:56.968Z,3.20
2018-02-19T19:47:24.533Z,3.20
2018-02-19T19:49:51.960Z,3.10
2018-02-19T19:52:19.513Z,3.10
2018-02-19T19:54:46.944Z,3.10
2018-02-19T19:57:14.427Z,3.10
2018-02-19T19:59:41.863Z,3.10
2018-02-19T20:02:09.331Z,3.10
2018-02-19T20:04:36.783Z,3.10
2018-02-19T20:07:04.267Z,3.10
2018-02-19T20:09:31.712Z,3.10
2018-02-19T20:11:59.172Z,3.10
2018-02-19T20:14:26.631Z,3.10
2018-02-19T20:16:54.127Z,3.10
2018-02-19T20:19:21.749Z,3.10
2018-02-19T20:21:49.181Z,3.10
2018-02-19T20:24:16.644Z,3.00
2018-02-19T20:26:44.092Z,3.00
2018-02-19T20:29:12.335Z,3.00
2018-02-19T20:31:39.787Z,3.00
2018-02-19T20:34:07.263Z,3.00
2018-02-19T20:36:34.813Z,3.00
2018-02-19T20:39:02.250Z,3.00
2018-02-19T20:41:29.698Z,2.90
2018-02-19T20:43:57.240Z,2.90
2018-02-19T20:46:24.696Z,2.90
2018-02-19T20:48:52.207Z,2.90
2018-02-19T20:51:19.638Z,2.90
2018-02-19T20:53:47.844Z,2.80
2018-02-19T20:56:15.295Z,2.90
2018-02-19T20:58:42.730Z,2.80
2018-02-19T21:01:10.931Z,2.70
2018-02-19T21:03:38.376Z,2.70
2018-02-19T21:06:05.900Z,2.60
2018-02-19T21:08:33.451Z,2.60
2018-02-19T21:11:00.916Z,2.60
2018-02-19T21:13:28.350Z,2.50
2018-02-19T21:15:55.829Z,2.50
2018-02-19T21:18:23.272Z,2.40
2018-02-19T21:20:50.741Z,2.40
2018-02-19T21:23:18.180Z,2.30
2018-02-19T21:25:45.622Z,2.30
2018-02-19T21:28:13.828Z,2.20
2018-02-19T21:30:41.340Z,2.20
2018-02-19T21:33:08.780Z,2.20
2018-02-19T21:35:36.236Z,2.10
2018-02-19T21:38:03.776Z,2.00
2018-02-19T21:40:31.339Z,2.00
2018-02-19T21:42:58.815Z,1.90
2018-02-19T21:45:26.260Z,1.90
2018-02-19T21:47:53.756Z,1.70
2018-02-19T21:50:21.196Z,1.60
2018-02-19T21:52:48.652Z,1.50
2018-02-19T21:55:16.180Z,1.40
2018-02-19T21:57:44.396Z,1.30
2018-02-19T22:00:11.952Z,1.30
2018-02-19T22:02:39.436Z,1.20
2018-02-19T22:05:06.868Z,1.10
2018-02-19T22:07:34.356Z,1.00
2018-02-19T22:10:01.837Z,0.90
2018-02-19T22:12:29.287Z,0.90
2018-02-19T22:14:58.344Z,0.80
2018-02-19T22:17:25.787Z,0.80
2018-02-19T22:19:54.000Z,0.60
2018-02-19T22:22:21.484Z,0.60
2018-02-19T22:24:48.918Z,0.60
2018-02-19T22:27:16.359Z,0.60
2018-02-19T22:29:44.617Z,0.60
2018-02-19T22:32:12.147Z,0.50
2018-02-19T22:34:39.613Z,0.50
2018-02-19T22:37:07.083Z,0.40
2018-02-19T22:39:34.532Z,0.40
2018-02-19T22:42:01.967Z,0.30
2018-02-19T22:44:29.451Z,0.20
2018-02-19T22:46:56.902Z,0.10
2018-02-19T22:49:24.392Z,0.10
2018-02-19T22:51:51.836Z,0.00
2018-02-19T22:54:19.299Z,0.00
2018-02-19T22:56:46.783Z,0.00
2018-02-19T22:59:14.740Z,-0.10
2018-02-19T23:01:42.179Z,-0.20
2018-02-19T23:04:09.662Z,-0.20
2018-02-19T23:06:37.106Z,-0.20
2018-02-19T23:09:04.568Z,-0.30
2018-02-19T23:11:32.056Z,-0.30
2018-02-19T23:14:00.400Z,-0.30
2018-02-19T23:16:27.860Z,-0.40
2018-02-19T23:18:55.424Z,-0.40
2018-02-19T23:21:22.851Z,-0.40
2018-02-19T23:23:51.068Z,-0.50
2018-02-19T23:26:18.533Z,-0.50
2018-02-19T23:28:45.998Z,-0.50
2018-02-19T23:31:13.454Z,-0.50
2018-02-19T23:33:40.942Z,-0.50
2018-02-19T23:36:08.512Z,-0.60
2018-02-19T23:38:35.959Z,-0.60
2018-02-19T23:41:03.424Z,-0.60
2018-02-19T23:43:30.985Z,-0.70
2018-02-19T23:45:58.521Z,-0.60
2018-02-19T23:48:25.996Z,-0.70
2018-02-19T23:50:53.471Z,-0.70
2018-02-19T23:53:21.100Z,-0.70
2018-02-19T23:55:48.565Z,-0.70
2018-02-19T23:58:16.081Z,-0.70
